METAR AND TAF INFORMATION
METAR FOR SKSM
ADDS - METARS form results

(1615 UTC 25 September 2020)
Data provider http://aviationweather.gov/metar/data/
 
METAR text: SKSM 251600Z 22007KT 9999 SCT017TCU BKN100 31/28 A2998 RMK TCU/E
Conditions at: SKSM (SANTA MARTA/SIMO, CO) observed 1600 UTC 25 September 2020
Temperature: 31.0°C (88°F)
Dewpoint: 28.0°C (82°F) [RH = 84%]
Pressure (altimeter): 29.98 inches Hg (1015.3 mb)
Winds: from the SW (220 degrees) at 8 MPH (7 knots; 3.6 m/s)
Visibility: 6 or more miles (10+ km)
Ceiling: 10000 feet AGL
Clouds: scattered clouds at 1700 feet AGL
broken clouds at 10000 feet AGL
Weather: no significant weather observed at this time

 AIRPORT MAP

 RUNWAY INFORMATION
Runway 01 Runway length 5577 ft Runway width 98 ft
Runway elevation 8 ft Runway displaced threshold 0 ft Runway heading 359
Runway 19 Runway length 5577 ft Runway width 98 ft
Runway elevation 22 ft Runway displaced threshold 0 ft Runway heading 179

 AIRPORT FREQUENCIES
Type APP Name BARRANQUIL Frequency 119.1 MHZ
Type TWR Name TWR Frequency 118.7 MHZ

 AIRPORT NEAR NAVIGATION AIDS
Type NDB Name Santa Marta Frequency 287 KHZ
Type VOR-DME Name Santa Marta Frequency 116600 KHZ